Time;durP1;ratioP1;P1;durP2;ratioP2;P2;SDS_P1;SDS_P2;PMS_P1;PMS_P2;Temp;Humidity;BMP_temperature;BMP_pressure;BME280_temperature;BME280_humidity;BME280_pressure;Samples;Min_cycle;Max_cycle;Signal;HPM_P1;HPM_P2
2021/11/05 00:00:30;;;;;;;;;;;;;;;;;;5094449;28;19947;-82
2021/11/05 00:02:57;;;;;;;;;;;;;;;;;;5094425;28;20001;-83
2021/11/05 00:05:23;;;;;;;;;;;;;;;;;;5094287;28;19916;-83
2021/11/05 00:07:49;;;;;;;;;;;;;;;;;;5094634;28;20369;-83
2021/11/05 00:10:17;;;;;;;;;;;;;;;;;;5093520;28;20194;-83
2021/11/05 00:12:43;;;;;;;;;;;;;;;;;;5094149;28;19923;-84
2021/11/05 00:15:09;;;;;;;;;;;;;;;;;;5094225;28;19916;-83
2021/11/05 00:17:34;;;;;;;;;;;;;;;;;;5075981;28;19923;-83
2021/11/05 00:20:00;;;;;;;;;;;;;;;;;;5094126;28;19916;-83
2021/11/05 00:22:25;;;;;;;;;;;;;;;;;;5093899;28;19958;-83
2021/11/05 00:24:51;;;;;;;;;;;;;;;;;;5094010;28;19920;-83
2021/11/05 00:27:16;;;;;;;;;;;;;;;;;;5075685;28;19959;-83
2021/11/05 00:29:42;;;;;;;;;;;;;;;;;;5093915;28;19962;-83
2021/11/05 00:32:08;;;;;;;;;;;;;;;;;;5093975;28;19920;-85
2021/11/05 00:34:34;;;;;;;;;;;;;;;;;;5075720;28;19916;-83
2021/11/05 00:36:59;;;;;;;;;;;;;;;;;;5093711;28;20279;-84
2021/11/05 00:39:25;;;;;;;;;;;;;;;;;;5093880;28;19971;-83
2021/11/05 00:41:50;;;;;;;;;;;;;;;;;;5093694;28;19921;-83
2021/11/05 00:44:15;;;;;;;;;;;;;;;;;;5075915;28;19916;-82
2021/11/05 00:46:41;;;;;;;;;;;;;;;;;;5093575;28;19939;-84
2021/11/05 00:49:07;;;;;;;;;;;;;;;;;;5093558;28;19916;-84
2021/11/05 00:51:32;;;;;;;;;;;;;;;;;;5093671;28;19916;-83
2021/11/05 00:53:58;;;;;;;;;;;;;;;;;;5093546;28;19916;-83
2021/11/05 00:56:23;;;;;;;;;;;;;;;;;;5093486;28;19961;-83
2021/11/05 00:58:48;;;;;;;;;;;;;;;;;;5075350;28;19916;-83
2021/11/05 01:01:14;;;;;;;;;;;;;;;;;;5093417;28;20478;-83
2021/11/05 01:03:40;;;;;;;;;;;;;;;;;;5093421;28;19989;-83
2021/11/05 01:06:05;;;;;;;;;;;;;;;;;;5074666;28;19931;-84
2021/11/05 01:08:31;;;;;;;;;;;;;;;;;;5093448;28;19939;-83
2021/11/05 01:10:56;;;;;;;;;;;;;;;;;;5075254;28;20630;-84
2021/11/05 01:13:21;;;;;;;;;;;;;;;;;;5093458;28;19956;-83
2021/11/05 01:15:47;;;;;;;;;;;;;;;;;;5093391;28;19923;-82
2021/11/05 01:18:13;;;;;;;;;;;;;;;;;;5093295;28;20372;-83
2021/11/05 01:20:39;;;;;;;;;;;;;;;;;;5093144;28;19916;-83
2021/11/05 01:23:05;;;;;;;;;;;;;;;;;;5093027;28;20486;-83
2021/11/05 01:25:30;;;;;;;;;;;;;;;;;;5093397;28;20015;-82
2021/11/05 01:27:56;;;;;;;;;;;;;;;;;;5093445;28;20383;-83
2021/11/05 01:30:21;;;;;;;;;;;;;;;;;;5096005;28;19928;-82
2021/11/05 01:32:47;;;;;;;;;;;;;;;;;;5095543;28;19928;-83
2021/11/05 01:35:13;;;;;;;;;;;;;;;;;;5093725;28;19939;-84
2021/11/05 01:37:39;;;;;;;;;;;;;;;;;;5093797;28;20360;-83
2021/11/05 01:40:05;;;;;;;;;;;;;;;;;;5093275;28;20018;-83
2021/11/05 01:42:32;;;;;;;;;;;;;;;;;;5093082;28;19917;-83
2021/11/05 01:44:58;;;;;;;;;;;;;;;;;;5093175;28;19920;-83
2021/11/05 01:47:23;;;;;;;;;;;;;;;;;;5092975;28;19924;-83
2021/11/05 01:49:49;;;;;;;;;;;;;;;;;;5093023;28;19923;-83
2021/11/05 01:52:15;;;;;;;;;;;;;;;;;;5092992;28;20436;-83
2021/11/05 01:54:41;;;;;;;;;;;;;;;;;;5092981;28;19923;-83
2021/11/05 01:57:07;;;;;;;;;;;;;;;;;;5093033;28;20287;-84
2021/11/05 01:59:33;;;;;;;;;;;;;;;;;;5092990;28;19984;-84
2021/11/05 02:02:04;;;;;;;;;;;;;;;;;;5092899;28;20284;-83
2021/11/05 02:04:29;;;;;;;;;;;;;;;;;;5092868;28;19927;-84
2021/11/05 02:06:55;;;;;;;;;;;;;;;;;;5074639;28;20399;-84
2021/11/05 02:09:22;;;;;;;;;;;;;;;;;;5092770;28;19916;-83
2021/11/05 02:11:48;;;;;;;;;;;;;;;;;;5074677;28;20287;-83
2021/11/05 02:14:15;;;;;;;;;;;;;;;;;;5092794;28;19971;-83
2021/11/05 02:16:42;;;;;;;;;;;;;;;;;;5094419;28;19916;-83
2021/11/05 02:19:11;;;;;;;;;;;;;;;;;;5096545;28;20375;-83
2021/11/05 02:21:43;;;;;;;;;;;;;;;;;;5096384;28;19920;-82
2021/11/05 02:24:09;;;;;;;;;;;;;;;;;;5096317;28;19920;-83
2021/11/05 02:26:35;;;;;;;;;;;;;;;;;;5096287;28;20007;-83
2021/11/05 02:29:00;;;;;;;;;;;;;;;;;;5096103;28;19920;-82
2021/11/05 02:31:26;;;;;;;;;;;;;;;;;;5096137;28;19969;-84
2021/11/05 02:33:52;;;;;;;;;;;;;;;;;;5096246;28;19916;-83
2021/11/05 02:36:17;;;;;;;;;;;;;;;;;;5096228;28;20360;-83
2021/11/05 02:38:43;;;;;;;;;;;;;;;;;;5096025;28;19916;-82
2021/11/05 02:41:08;;;;;;;;;;;;;;;;;;5095966;28;19916;-84
2021/11/05 02:43:34;;;;;;;;;;;;;;;;;;5096053;28;19920;-83
2021/11/05 02:45:59;;;;;;;;;;;;;;;;;;5095886;28;19961;-83
2021/11/05 02:48:27;;;;;;;;;;;;;;;;;;5095831;28;20323;-83
2021/11/05 02:50:52;;;;;;;;;;;;;;;;;;5095945;28;19916;-83
2021/11/05 02:53:18;;;;;;;;;;;;;;;;;;5095804;28;19922;-82
2021/11/05 02:55:44;;;;;;;;;;;;;;;;;;5095833;28;20280;-83
2021/11/05 02:58:09;;;;;;;;;;;;;;;;;;5095769;28;20387;-83
2021/11/05 03:00:35;;;;;;;;;;;;;;;;;;5095637;28;19928;-83
2021/11/05 03:03:00;;;;;;;;;;;;;;;;;;5095615;28;19912;-83
2021/11/05 03:05:26;;;;;;;;;;;;;;;;;;5077266;28;19916;-82
2021/11/05 03:07:52;;;;;;;;;;;;;;;;;;5095552;28;19920;-83
2021/11/05 03:10:17;;;;;;;;;;;;;;;;;;5095650;28;19916;-82
2021/11/05 03:12:44;;;;;;;;;;;;;;;;;;5095669;28;20384;-83
2021/11/05 03:15:10;;;;;;;;;;;;;;;;;;5095407;28;19977;-83
2021/11/05 03:17:36;;;;;;;;;;;;;;;;;;5095370;28;20367;-83
2021/11/05 03:20:03;;;;;;;;;;;;;;;;;;5095344;28;19917;-83
2021/11/05 03:22:28;;;;;;;;;;;;;;;;;;5095001;28;20015;-84
2021/11/05 03:24:54;;;;;;;;;;;;;;;;;;5076975;28;20014;-83
2021/11/05 03:27:19;;;;;;;;;;;;;;;;;;5094948;28;20027;-84
2021/11/05 03:29:45;;;;;;;;;;;;;;;;;;5094708;28;20018;-82
2021/11/05 03:32:11;;;;;;;;;;;;;;;;;;5094891;28;19916;-82
2021/11/05 03:34:36;;;;;;;;;;;;;;;;;;5095018;28;19917;-82
2021/11/05 03:37:02;;;;;;;;;;;;;;;;;;5094923;28;20387;-82
2021/11/05 03:39:28;;;;;;;;;;;;;;;;;;5076990;28;20012;-82
2021/11/05 03:41:53;;;;;;;;;;;;;;;;;;5094785;28;19961;-82
2021/11/05 03:44:18;;;;;;;;;;;;;;;;;;5094777;28;19916;-82
2021/11/05 03:46:44;;;;;;;;;;;;;;;;;;5094681;28;19916;-83
2021/11/05 03:49:09;;;;;;;;;;;;;;;;;;5094647;28;19970;-83
2021/11/05 03:51:35;;;;;;;;;;;;;;;;;;5094603;28;20268;-83
2021/11/05 03:54:01;;;;;;;;;;;;;;;;;;5094596;28;19936;-83
2021/11/05 03:56:27;;;;;;;;;;;;;;;;;;5094606;28;20303;-83
2021/11/05 03:58:52;;;;;;;;;;;;;;;;;;5094532;28;20003;-83
2021/11/05 04:01:20;;;;;;;;;;;;;;;;;;5076204;28;20006;-83
2021/11/05 04:03:46;;;;;;;;;;;;;;;;;;5094374;28;19927;-84
2021/11/05 04:06:12;;;;;;;;;;;;;;;;;;5094354;28;19966;-84
2021/11/05 04:08:37;;;;;;;;;;;;;;;;;;5094257;28;19920;-84
2021/11/05 04:11:03;;;;;;;;;;;;;;;;;;5094295;28;20261;-83
2021/11/05 04:13:28;;;;;;;;;;;;;;;;;;5094272;28;19916;-83
2021/11/05 04:15:54;;;;;;;;;;;;;;;;;;5094200;28;19916;-84
2021/11/05 04:18:19;;;;;;;;;;;;;;;;;;5094330;28;19927;-82
2021/11/05 04:20:45;;;;;;;;;;;;;;;;;;5094016;28;19972;-83
2021/11/05 04:23:11;;;;;;;;;;;;;;;;;;5093964;28;19966;-84
2021/11/05 04:25:37;;;;;;;;;;;;;;;;;;5094436;28;19931;-84
2021/11/05 04:28:03;;;;;;;;;;;;;;;;;;5094287;28;19916;-84
2021/11/05 04:30:29;;;;;;;;;;;;;;;;;;5094530;28;20380;-85
2021/11/05 04:32:54;;;;;;;;;;;;;;;;;;5094197;28;19916;-85
2021/11/05 04:35:20;;;;;;;;;;;;;;;;;;5094160;28;20441;-85
2021/11/05 04:37:45;;;;;;;;;;;;;;;;;;5075486;28;19912;-83
2021/11/05 04:40:11;;;;;;;;;;;;;;;;;;5093033;28;19924;-82
2021/11/05 04:42:36;;;;;;;;;;;;;;;;;;5093721;28;19990;-83
2021/11/05 04:45:02;;;;;;;;;;;;;;;;;;5093988;28;19924;-83
2021/11/05 04:47:28;;;;;;;;;;;;;;;;;;5094205;28;19919;-83
2021/11/05 04:49:53;;;;;;;;;;;;;;;;;;5095230;28;19916;-84
2021/11/05 04:52:18;;;;;;;;;;;;;;;;;;5094588;28;19921;-83
2021/11/05 04:54:44;;;;;;;;;;;;;;;;;;5096016;28;19920;-82
2021/11/05 04:57:10;;;;;;;;;;;;;;;;;;5094080;28;19938;-82
2021/11/05 04:59:35;;;;;;;;;;;;;;;;;;5093638;28;19924;-81
2021/11/05 05:02:02;;;;;;;;;;;;;;;;;;5093684;28;19927;-82
2021/11/05 05:04:27;;;;;;;;;;;;;;;;;;5093729;28;19916;-85
2021/11/05 05:06:53;;;;;;;;;;;;;;;;;;5093417;28;19999;-84
2021/11/05 05:09:18;;;;;;;;;;;;;;;;;;5093661;28;19917;-84
2021/11/05 05:11:45;;;;;;;;;;;;;;;;;;5093697;28;19916;-85
2021/11/05 05:14:11;;;;;;;;;;;;;;;;;;5093719;28;19916;-84
2021/11/05 05:16:36;;;;;;;;;;;;;;;;;;5093969;28;20306;-83
2021/11/05 05:19:02;;;;;;;;;;;;;;;;;;5093659;28;19928;-85
2021/11/05 05:21:28;;;;;;;;;;;;;;;;;;5076287;28;19920;-85
2021/11/05 05:23:53;;;;;;;;;;;;;;;;;;5093763;28;19980;-85
2021/11/05 05:26:19;;;;;;;;;;;;;;;;;;5075222;28;20007;-85
2021/11/05 05:28:44;;;;;;;;;;;;;;;;;;5075918;28;19917;-87
2021/11/05 05:31:10;;;;;;;;;;;;;;;;;;5096535;28;19916;-85
2021/11/05 05:33:36;;;;;;;;;;;;;;;;;;5096773;28;19920;-86
2021/11/05 05:36:05;;;;;;;;;;;;;;;;;;5104493;28;19927;-87
2021/11/05 05:38:31;;;;;;;;;;;;;;;;;;5103792;28;19916;-85
2021/11/05 05:40:56;;;;;;;;;;;;;;;;;;5086935;28;19923;-83
2021/11/05 05:43:22;;;;;;;;;;;;;;;;;;5103223;28;20002;-82
2021/11/05 05:45:47;;;;;;;;;;;;;;;;;;5098980;28;20257;-83
2021/11/05 05:48:13;;;;;;;;;;;;;;;;;;5100188;28;19916;-83
2021/11/05 05:50:39;;;;;;;;;;;;;;;;;;5099225;28;19923;-84
2021/11/05 05:53:05;;;;;;;;;;;;;;;;;;5067721;28;20288;-84
2021/11/05 05:55:30;;;;;;;;;;;;;;;;;;5082968;28;19924;-84
2021/11/05 05:58:02;;;;;;;;;;;;;;;;;;5100396;28;19917;-83
2021/11/05 06:00:29;;;;;;;;;;;;;;;;;;5097911;28;20325;-83
2021/11/05 06:02:55;;;;;;;;;;;;;;;;;;5097960;28;19920;-78
2021/11/05 06:05:27;;;;;;;;;;;;;;;;;;5099158;28;19927;-78
2021/11/05 06:07:53;;;;;;;;;;;;;;;;;;5095966;28;20413;-81
2021/11/05 06:10:18;;;;;;;;;;;;;;;;;;5101691;28;19919;-83
2021/11/05 06:12:44;;;;;;;;;;;;;;;;;;5101590;28;20045;-86
2021/11/05 06:15:09;;;;;;;;;;;;;;;;;;5109918;28;19919;-84
2021/11/05 06:17:34;;;;;;;;;;;;;;;;;;5107783;28;19931;-86
2021/11/05 06:20:00;;;;;;;;;;;;;;;;;;5104540;28;19923;-87
2021/11/05 06:22:26;;;;;;;;;;;;;;;;;;5097113;28;19919;-81
2021/11/05 06:24:52;;;;;;;;;;;;;;;;;;5097049;28;20376;-82
2021/11/05 06:27:18;;;;;;;;;;;;;;;;;;5096504;28;19970;-83
2021/11/05 06:29:43;;;;;;;;;;;;;;;;;;5100119;28;20039;-82
2021/11/05 06:32:09;;;;;;;;;;;;;;;;;;5098862;28;20273;-81
2021/11/05 06:34:35;;;;;;;;;;;;;;;;;;5105501;28;19920;-80
2021/11/05 06:37:00;;;;;;;;;;;;;;;;;;5096594;28;20372;-81
2021/11/05 06:39:26;;;;;;;;;;;;;;;;;;5096998;28;19915;-80
2021/11/05 06:41:51;;;;;;;;;;;;;;;;;;5078185;28;19916;-85
2021/11/05 06:44:17;;;;;;;;;;;;;;;;;;5096983;28;19922;-84
2021/11/05 06:46:42;;;;;;;;;;;;;;;;;;5096113;28;19947;-85
2021/11/05 07:04:18;;;;;;;;;;;;;;;;;;5071765;28;19917;-80
2021/11/05 07:06:46;;;;;;;;;;;;;;;;;;5071104;28;19974;-80
2021/11/05 07:09:15;;;;;;;;;;;;;;;;;;5069777;28;19917;-80
2021/11/05 07:11:45;;;;;;;;;;;;;;;;;;5071013;28;19916;-82
2021/11/05 07:14:10;;;;;;;;;;;;;;;;;;5069101;28;20330;-83
2021/11/05 07:16:37;;;;;;;;;;;;;;;;;;5070951;28;19920;-83
2021/11/05 07:19:02;;;;;;;;;;;;;;;;;;5070906;28;19921;-83
2021/11/05 07:21:28;;;;;;;;;;;;;;;;;;5070777;28;19917;-82
2021/11/05 07:24:00;;;;;;;;;;;;;;;;;;5070711;28;19917;-82
2021/11/05 07:26:33;;;;;;;;;;;;;;;;;;5076928;28;20395;-83
2021/11/05 07:28:58;;;;;;;;;;;;;;;;;;5090136;28;19927;-81
2021/11/05 07:31:24;;;;;;;;;;;;;;;;;;5090931;28;20283;-81
2021/11/05 07:33:49;;;;;;;;;;;;;;;;;;5090663;28;19924;-80
2021/11/05 07:36:14;;;;;;;;;;;;;;;;;;5090666;28;19912;-82
2021/11/05 07:38:40;;;;;;;;;;;;;;;;;;5090639;28;19923;-81
2021/11/05 07:41:05;;;;;;;;;;;;;;;;;;5090500;28;19930;-81
2021/11/05 07:43:31;;;;;;;;;;;;;;;;;;5090763;28;20448;-82
2021/11/05 07:45:56;;;;;;;;;;;;;;;;;;5090750;28;19927;-81
2021/11/05 07:48:21;;;;;;;;;;;;;;;;;;5090546;28;20318;-84
2021/11/05 07:50:47;;;;;;;;;;;;;;;;;;5090387;28;20337;-84
2021/11/05 07:53:12;;;;;;;;;;;;;;;;;;5090416;28;19916;-81
2021/11/05 07:55:38;;;;;;;;;;;;;;;;;;5090225;28;19917;-80
2021/11/05 07:58:04;;;;;;;;;;;;;;;;;;5090317;28;19939;-79
2021/11/05 08:00:29;;;;;;;;;;;;;;;;;;5089071;28;19979;-80
2021/11/05 08:02:55;;;;;;;;;;;;;;;;;;5085855;28;20367;-80
2021/11/05 08:05:20;;;;;;;;;;;;;;;;;;5076621;28;19916;-80
2021/11/05 08:07:46;;;;;;;;;;;;;;;;;;5075364;28;19935;-84
2021/11/05 08:10:14;;;;;;;;;;;;;;;;;;5076566;28;19993;-82
2021/11/05 08:12:39;;;;;;;;;;;;;;;;;;5076343;28;20402;-85
2021/11/05 08:15:05;;;;;;;;;;;;;;;;;;5076756;28;19917;-78
2021/11/05 08:17:31;;;;;;;;;;;;;;;;;;5076449;28;19917;-78
2021/11/05 08:19:56;;;;;;;;;;;;;;;;;;5076342;28;20025;-78
2021/11/05 08:22:22;;;;;;;;;;;;;;;;;;5076476;28;19917;-79
2021/11/05 08:24:47;;;;;;;;;;;;;;;;;;5074840;28;19917;-80
2021/11/05 08:27:13;;;;;;;;;;;;;;;;;;5059934;28;19925;-80
2021/11/05 08:29:39;;;;;;;;;;;;;;;;;;5061379;28;19935;-80
2021/11/05 08:32:04;;;;;;;;;;;;;;;;;;5061076;28;19928;-79
2021/11/05 08:34:30;;;;;;;;;;;;;;;;;;5054715;28;20371;-80
2021/11/05 08:36:58;;;;;;;;;;;;;;;;;;5056548;28;20045;-80
2021/11/05 08:39:23;;;;;;;;;;;;;;;;;;5047458;28;19932;-79
2021/11/05 08:41:49;;;;;;;;;;;;;;;;;;5064708;28;19917;-89
2021/11/05 08:44:15;;;;;;;;;;;;;;;;;;5055903;28;19916;-79
2021/11/05 08:46:43;;;;;;;;;;;;;;;;;;5055927;28;19917;-80
2021/11/05 08:49:10;;;;;;;;;;;;;;;;;;5055848;28;19917;-79
2021/11/05 08:51:36;;;;;;;;;;;;;;;;;;5055761;28;19964;-82
2021/11/05 08:54:02;;;;;;;;;;;;;;;;;;5055836;28;20023;-79
2021/11/05 08:56:27;;;;;;;;;;;;;;;;;;5055816;28;19924;-80
2021/11/05 08:58:53;;;;;;;;;;;;;;;;;;5056322;28;19916;-79
2021/11/05 09:01:18;;;;;;;;;;;;;;;;;;5056036;28;19928;-77
2021/11/05 09:03:44;;;;;;;;;;;;;;;;;;5055525;28;19966;-82
2021/11/05 09:06:09;;;;;;;;;;;;;;;;;;5054409;28;20372;-82
2021/11/05 09:08:38;;;;;;;;;;;;;;;;;;5055377;28;20007;-82
2021/11/05 09:11:04;;;;;;;;;;;;;;;;;;5059214;28;19920;-94
2021/11/05 09:13:31;;;;;;;;;;;;;;;;;;5058103;28;19916;-93
2021/11/05 09:15:57;;;;;;;;;;;;;;;;;;5062068;28;19928;-95
2021/11/05 09:18:23;;;;;;;;;;;;;;;;;;5057585;28;20276;-80
2021/11/05 09:20:48;;;;;;;;;;;;;;;;;;5055698;28;19917;-81
2021/11/05 09:23:14;;;;;;;;;;;;;;;;;;5060573;28;19913;-80
2021/11/05 09:25:39;;;;;;;;;;;;;;;;;;5059614;28;19918;-80
2021/11/05 09:28:05;;;;;;;;;;;;;;;;;;5055103;28;19917;-84
2021/11/05 09:30:30;;;;;;;;;;;;;;;;;;5055040;28;19951;-80
2021/11/05 09:32:56;;;;;;;;;;;;;;;;;;5053981;28;20019;-84
2021/11/05 09:35:23;;;;;;;;;;;;;;;;;;5055681;28;19917;-80
2021/11/05 09:37:50;;;;;;;;;;;;;;;;;;5054871;28;19917;-89
2021/11/05 09:40:17;;;;;;;;;;;;;;;;;;5054780;28;19917;-85
2021/11/05 09:42:44;;;;;;;;;;;;;;;;;;5054735;28;20011;-89
2021/11/05 09:45:10;;;;;;;;;;;;;;;;;;5054571;28;20330;-90
2021/11/05 09:47:38;;;;;;;;;;;;;;;;;;5054838;28;20061;-91
2021/11/05 09:50:04;;;;;;;;;;;;;;;;;;5055012;28;19917;-90
2021/11/05 09:52:29;;;;;;;;;;;;;;;;;;5054682;28;19917;-84
2021/11/05 09:54:57;;;;;;;;;;;;;;;;;;5054489;28;19923;-79
2021/11/05 09:57:22;;;;;;;;;;;;;;;;;;5054932;28;20327;-90
2021/11/05 09:59:47;;;;;;;;;;;;;;;;;;5054489;28;19917;-80
2021/11/05 10:02:17;;;;;;;;;;;;;;;;;;5054268;28;19927;-88
2021/11/05 10:04:44;;;;;;;;;;;;;;;;;;5054510;28;19924;-90
2021/11/05 10:07:10;;;;;;;;;;;;;;;;;;5054335;28;20403;-88
2021/11/05 10:09:37;;;;;;;;;;;;;;;;;;5054374;28;19924;-80
2021/11/05 10:12:15;;;;;;;;;;;;;;;;;;5054144;28;19927;-80
2021/11/05 10:14:40;;;;;;;;;;;;;;;;;;5054182;28;19917;-80
2021/11/05 10:17:08;;;;;;;;;;;;;;;;;;5053673;28;19917;-80
2021/11/05 10:19:50;;;;;;;;;;;;;;;;;;5052795;28;19917;-81
2021/11/05 10:22:34;;;;;;;;;;;;;;;;;;5052326;28;19920;-80
2021/11/05 10:25:15;;;;;;;;;;;;;;;;;;5034162;28;19917;-88
2021/11/05 10:27:40;;;;;;;;;;;;;;;;;;5034157;28;20288;-93
2021/11/05 10:30:06;;;;;;;;;;;;;;;;;;5034100;28;19921;-91
2021/11/05 10:32:32;;;;;;;;;;;;;;;;;;5034052;28;19917;-89
2021/11/05 10:35:01;;;;;;;;;;;;;;;;;;5034015;28;19951;-79
2021/11/05 10:37:32;;;;;;;;;;;;;;;;;;5032779;28;19929;-91
2021/11/05 10:39:59;;;;;;;;;;;;;;;;;;5034040;28;20388;-79
2021/11/05 10:42:35;;;;;;;;;;;;;;;;;;5033965;28;19917;-79
2021/11/05 10:45:14;;;;;;;;;;;;;;;;;;5033165;28;19999;-80
2021/11/05 10:47:55;;;;;;;;;;;;;;;;;;5032206;28;19913;-80
2021/11/05 10:50:25;;;;;;;;;;;;;;;;;;5031140;28;19990;-81
2021/11/05 10:53:10;;;;;;;;;;;;;;;;;;5033358;28;19917;-79
2021/11/05 10:55:39;;;;;;;;;;;;;;;;;;5034044;28;19917;-79
2021/11/05 10:58:06;;;;;;;;;;;;;;;;;;5032495;28;19920;-79
2021/11/05 11:00:31;;;;;;;;;;;;;;;;;;5033783;28;20357;-79
2021/11/05 11:03:14;;;;;;;;;;;;;;;;;;5033660;28;19928;-84
2021/11/05 11:05:43;;;;;;;;;;;;;;;;;;5033740;28;20276;-80
2021/11/05 11:08:25;;;;;;;;;;;;;;;;;;5032371;28;19968;-83
2021/11/05 11:10:52;;;;;;;;;;;;;;;;;;5033696;28;19917;-80
2021/11/05 11:13:53;;;;;;;;;;;;;;;;;;5033543;28;19917;-80
2021/11/05 11:16:23;;;;;;;;;;;;;;;;;;4972993;28;20345;-79
2021/11/05 11:18:56;;;;;;;;;;;;;;;;;;4973115;28;20314;-81
2021/11/05 11:21:23;;;;;;;;;;;;;;;;;;4972732;28;20351;-79
2021/11/05 11:23:48;;;;;;;;;;;;;;;;;;4973023;28;19918;-79
2021/11/05 11:26:14;;;;;;;;;;;;;;;;;;4972817;28;19924;-79
2021/11/05 11:28:40;;;;;;;;;;;;;;;;;;4972778;28;20432;-79
2021/11/05 11:31:05;;;;;;;;;;;;;;;;;;4972931;28;19918;-79
2021/11/05 11:33:31;;;;;;;;;;;;;;;;;;4972715;28;20001;-81
2021/11/05 11:35:57;;;;;;;;;;;;;;;;;;4972646;28;19922;-79
2021/11/05 11:38:22;;;;;;;;;;;;;;;;;;4973809;28;19919;-79
2021/11/05 11:40:49;;;;;;;;;;;;;;;;;;4976468;28;19918;-80
2021/11/05 11:43:16;;;;;;;;;;;;;;;;;;4976284;28;20413;-80
2021/11/05 11:45:45;;;;;;;;;;;;;;;;;;4976180;28;20016;-80
2021/11/05 11:48:11;;;;;;;;;;;;;;;;;;4976110;28;19918;-78
2021/11/05 11:50:38;;;;;;;;;;;;;;;;;;5015770;28;19921;-79
2021/11/05 11:53:05;;;;;;;;;;;;;;;;;;5035583;28;19917;-78
2021/11/05 11:55:31;;;;;;;;;;;;;;;;;;5037136;28;20381;-79
2021/11/05 11:58:12;;;;;;;;;;;;;;;;;;5036811;28;19921;-79
2021/11/05 12:00:38;;;;;;;;;;;;;;;;;;5036779;28;19963;-79
2021/11/05 12:03:08;;;;;;;;;;;;;;;;;;5036530;28;19925;-78
2021/11/05 12:05:35;;;;;;;;;;;;;;;;;;5036993;28;19921;-79
2021/11/05 12:08:19;;;;;;;;;;;;;;;;;;5036633;28;19917;-80
2021/11/05 12:10:49;;;;;;;;;;;;;;;;;;5036541;28;19959;-78
2021/11/05 12:13:33;;;;;;;;;;;;;;;;;;5036500;28;19959;-79
2021/11/05 12:16:11;;;;;;;;;;;;;;;;;;5036481;28;20373;-79
2021/11/05 12:19:03;;;;;;;;;;;;;;;;;;5036652;28;19921;-79
2021/11/05 12:21:30;;;;;;;;;;;;;;;;;;5033574;28;20231;-79
2021/11/05 12:26:59;;;;;;;;;;;;;;;;;;5036821;28;19924;-79
2021/11/05 12:29:34;;;;;;;;;;;;;;;;;;5036362;28;19924;-80
2021/11/05 12:31:59;;;;;;;;;;;;;;;;;;5036473;28;20388;-79
2021/11/05 12:34:26;;;;;;;;;;;;;;;;;;5036228;28;19987;-80
2021/11/05 12:36:58;;;;;;;;;;;;;;;;;;5036140;28;19963;-85
2021/11/05 12:39:34;;;;;;;;;;;;;;;;;;5036082;28;19940;-82
2021/11/05 12:42:09;;;;;;;;;;;;;;;;;;5036060;28;19917;-82
2021/11/05 12:44:52;;;;;;;;;;;;;;;;;;5034791;28;19917;-81
2021/11/05 12:47:38;;;;;;;;;;;;;;;;;;5036209;28;19917;-83
2021/11/05 12:50:03;;;;;;;;;;;;;;;;;;5035824;28;20347;-81
2021/11/05 12:52:29;;;;;;;;;;;;;;;;;;5036086;28;19921;-82
2021/11/05 12:55:01;;;;;;;;;;;;;;;;;;5035758;28;19924;-81
2021/11/05 12:57:27;;;;;;;;;;;;;;;;;;5035829;28;19928;-85
2021/11/05 12:59:52;;;;;;;;;;;;;;;;;;5034472;28;20011;-81
2021/11/05 13:02:20;;;;;;;;;;;;;;;;;;5035565;28;19979;-83
2021/11/05 13:04:50;;;;;;;;;;;;;;;;;;5035625;28;19943;-80
2021/11/05 13:07:16;;;;;;;;;;;;;;;;;;5035764;28;20000;-80
2021/11/05 13:09:42;;;;;;;;;;;;;;;;;;5035719;28;19956;-80
2021/11/05 13:12:09;;;;;;;;;;;;;;;;;;5035450;28;20015;-81
2021/11/05 13:14:56;;;;;;;;;;;;;;;;;;5035793;28;19917;-83
2021/11/05 13:17:31;;;;;;;;;;;;;;;;;;5034092;28;19948;-81
2021/11/05 13:20:05;;;;;;;;;;;;;;;;;;5035357;28;19917;-83
2021/11/05 13:22:32;;;;;;;;;;;;;;;;;;5035291;28;19920;-85
2021/11/05 13:25:17;;;;;;;;;;;;;;;;;;5035293;28;20393;-86
2021/11/05 13:27:43;;;;;;;;;;;;;;;;;;5035356;28;19920;-84
2021/11/05 13:30:09;;;;;;;;;;;;;;;;;;5035177;28;19947;-79
2021/11/05 13:32:35;;;;;;;;;;;;;;;;;;5035074;28;20338;-78
2021/11/05 13:35:00;;;;;;;;;;;;;;;;;;5035248;28;19917;-79
2021/11/05 13:37:27;;;;;;;;;;;;;;;;;;5035005;28;19940;-79
2021/11/05 13:39:53;;;;;;;;;;;;;;;;;;5035081;28;19917;-78
2021/11/05 13:42:20;;;;;;;;;;;;;;;;;;5034995;28;19913;-78
2021/11/05 13:45:03;;;;;;;;;;;;;;;;;;5034849;28;19917;-78
2021/11/05 13:47:29;;;;;;;;;;;;;;;;;;5033779;28;19984;-78
2021/11/05 13:50:02;;;;;;;;;;;;;;;;;;5034897;28;19921;-78
2021/11/05 13:52:31;;;;;;;;;;;;;;;;;;5033498;28;19917;-78
2021/11/05 13:54:56;;;;;;;;;;;;;;;;;;5034794;28;19928;-78
2021/11/05 13:57:22;;;;;;;;;;;;;;;;;;5034594;28;19917;-78
2021/11/05 13:59:50;;;;;;;;;;;;;;;;;;5034743;28;19924;-78
2021/11/05 14:02:15;;;;;;;;;;;;;;;;;;5032532;28;19921;-77
2021/11/05 14:04:41;;;;;;;;;;;;;;;;;;5034484;28;20270;-77
2021/11/05 14:07:10;;;;;;;;;;;;;;;;;;5034452;28;19988;-78
2021/11/05 14:09:36;;;;;;;;;;;;;;;;;;5033164;28;19971;-77
2021/11/05 14:12:03;;;;;;;;;;;;;;;;;;5034152;28;19972;-77
2021/11/05 14:14:33;;;;;;;;;;;;;;;;;;5034614;28;19964;-77
2021/11/05 14:17:03;;;;;;;;;;;;;;;;;;5034474;28;19979;-77
2021/11/05 14:19:30;;;;;;;;;;;;;;;;;;5034246;28;19967;-79
2021/11/05 14:22:09;;;;;;;;;;;;;;;;;;5034316;28;20444;-79
2021/11/05 14:24:37;;;;;;;;;;;;;;;;;;5034230;28;20296;-79
2021/11/05 14:27:07;;;;;;;;;;;;;;;;;;5034172;28;19925;-80
2021/11/05 14:29:36;;;;;;;;;;;;;;;;;;5034033;28;19917;-80
2021/11/05 14:32:06;;;;;;;;;;;;;;;;;;5033932;28;19917;-80
2021/11/05 14:34:48;;;;;;;;;;;;;;;;;;5034190;28;19964;-79
2021/11/05 14:37:18;;;;;;;;;;;;;;;;;;5034746;28;20293;-77
2021/11/05 14:39:51;;;;;;;;;;;;;;;;;;5034083;28;19970;-81
2021/11/05 14:42:16;;;;;;;;;;;;;;;;;;5032652;28;19982;-83
2021/11/05 14:44:42;;;;;;;;;;;;;;;;;;5033969;28;20007;-80
2021/11/05 14:47:07;;;;;;;;;;;;;;;;;;5034093;28;20028;-80
2021/11/05 14:49:33;;;;;;;;;;;;;;;;;;5032653;28;19917;-80
2021/11/05 14:52:03;;;;;;;;;;;;;;;;;;5033995;28;19918;-80
2021/11/05 14:54:28;;;;;;;;;;;;;;;;;;5033834;28;19917;-80
2021/11/05 14:57:12;;;;;;;;;;;;;;;;;;5033965;28;19924;-80
2021/11/05 14:59:38;;;;;;;;;;;;;;;;;;5033766;28;20372;-80
2021/11/05 15:02:03;;;;;;;;;;;;;;;;;;5033474;28;19923;-81
2021/11/05 15:04:29;;;;;;;;;;;;;;;;;;5033911;28;19917;-80
2021/11/05 15:06:54;;;;;;;;;;;;;;;;;;5031881;28;19924;-80
2021/11/05 15:09:22;;;;;;;;;;;;;;;;;;5032427;28;19916;-80
2021/11/05 15:11:48;;;;;;;;;;;;;;;;;;5033603;28;19917;-80
2021/11/05 15:14:13;;;;;;;;;;;;;;;;;;5036311;28;19996;-81
2021/11/05 15:16:39;;;;;;;;;;;;;;;;;;5037688;28;19957;-80
2021/11/05 15:19:05;;;;;;;;;;;;;;;;;;5036313;28;19924;-80
2021/11/05 15:21:30;;;;;;;;;;;;;;;;;;5043258;28;19925;-84
2021/11/05 15:23:56;;;;;;;;;;;;;;;;;;5047071;28;19964;-93
2021/11/05 15:26:22;;;;;;;;;;;;;;;;;;5044408;28;19982;-93
2021/11/05 15:28:49;;;;;;;;;;;;;;;;;;5039708;28;20377;-81
2021/11/05 15:31:18;;;;;;;;;;;;;;;;;;5036956;28;19917;-81
2021/11/05 15:33:43;;;;;;;;;;;;;;;;;;5036441;28;19917;-81
2021/11/05 15:36:10;;;;;;;;;;;;;;;;;;5037328;28;20289;-81
2021/11/05 15:38:37;;;;;;;;;;;;;;;;;;5037319;28;19925;-83
2021/11/05 15:41:03;;;;;;;;;;;;;;;;;;5035888;28;19917;-81
2021/11/05 15:43:32;;;;;;;;;;;;;;;;;;5038803;28;20315;-92
2021/11/05 15:46:03;;;;;;;;;;;;;;;;;;5040229;28;19936;-86
2021/11/05 15:48:29;;;;;;;;;;;;;;;;;;5047906;28;19921;-81
2021/11/05 15:50:54;;;;;;;;;;;;;;;;;;5041715;28;19932;-88
2021/11/05 15:53:20;;;;;;;;;;;;;;;;;;5041936;28;20306;-85
2021/11/05 15:55:46;;;;;;;;;;;;;;;;;;5040666;28;19925;-81
2021/11/05 15:58:12;;;;;;;;;;;;;;;;;;5042501;28;19921;-81
2021/11/05 16:00:39;;;;;;;;;;;;;;;;;;5042813;28;20012;-89
2021/11/05 16:03:05;;;;;;;;;;;;;;;;;;5041152;28;19921;-86
2021/11/05 16:05:31;;;;;;;;;;;;;;;;;;5043192;28;19924;-89
2021/11/05 16:07:56;;;;;;;;;;;;;;;;;;5041325;28;19925;-89
2021/11/05 16:10:24;;;;;;;;;;;;;;;;;;5041015;28;19927;-92
2021/11/05 16:12:49;;;;;;;;;;;;;;;;;;5045045;28;20880;-90
2021/11/05 16:15:15;;;;;;;;;;;;;;;;;;5045018;28;19925;-89
2021/11/05 16:17:42;;;;;;;;;;;;;;;;;;5047597;28;19921;-89
2021/11/05 16:20:09;;;;;;;;;;;;;;;;;;5046177;28;20020;-92
2021/11/05 16:22:34;;;;;;;;;;;;;;;;;;5059715;28;19925;-83
2021/11/05 16:25:00;;;;;;;;;;;;;;;;;;5059195;28;19943;-87
2021/11/05 16:27:26;;;;;;;;;;;;;;;;;;5058944;28;19936;-84
2021/11/05 16:29:51;;;;;;;;;;;;;;;;;;5055139;28;19921;-85
2021/11/05 16:32:17;;;;;;;;;;;;;;;;;;5058643;28;19964;-84
2021/11/05 16:34:42;;;;;;;;;;;;;;;;;;5053035;28;19951;-84
2021/11/05 16:37:08;;;;;;;;;;;;;;;;;;5056072;28;19983;-83
2021/11/05 16:39:34;;;;;;;;;;;;;;;;;;5047642;28;19967;-83
2021/11/05 16:41:59;;;;;;;;;;;;;;;;;;5041454;28;19921;-86
2021/11/05 16:44:25;;;;;;;;;;;;;;;;;;5040722;28;19922;-84
2021/11/05 16:46:52;;;;;;;;;;;;;;;;;;5042745;28;20432;-87
2021/11/05 16:49:18;;;;;;;;;;;;;;;;;;5041338;28;19921;-89
2021/11/05 16:51:44;;;;;;;;;;;;;;;;;;5039394;28;19921;-81
2021/11/05 16:54:11;;;;;;;;;;;;;;;;;;5038233;28;20353;-87
2021/11/05 16:56:37;;;;;;;;;;;;;;;;;;5045455;28;19920;-86
2021/11/05 16:59:03;;;;;;;;;;;;;;;;;;5042031;28;20431;-83
2021/11/05 17:01:28;;;;;;;;;;;;;;;;;;5042160;28;19952;-91
2021/11/05 17:03:55;;;;;;;;;;;;;;;;;;5043919;28;19921;-85